Time;durP1;ratioP1;P1;durP2;ratioP2;P2;SDS_P1;SDS_P2;PMS_P1;PMS_P2;Temp;Humidity;BMP_temperature;BMP_pressure;BME280_temperature;BME280_humidity;BME280_pressure;Samples;Min_cycle;Max_cycle;Signal;HPM_P1;HPM_P2
2022/03/13 00:02:15;;;;;;;16.30;9.60;;;;;;;-3.47;44.69;100444.91;4472680;32;33926;-75
2022/03/13 00:04:48;;;;;;;23.58;11.85;;;;;;;-3.55;46.92;100435.91;4485212;32;35240;-76
2022/03/13 00:07:19;;;;;;;16.87;9.60;;;;;;;-3.37;46.10;100441.25;4471445;32;34493;-75
2022/03/13 00:09:49;;;;;;;25.25;8.55;;;;;;;-3.40;44.88;100438.53;4467364;32;33595;-76
2022/03/13 00:12:30;;;;;;;24.42;9.23;;;;;;;-4.15;48.26;100440.56;4470795;32;33918;-75
2022/03/13 00:15:01;;;;;;;14.63;8.93;;;;;;;-3.70;47.97;100431.59;4475554;32;35950;-75
2022/03/13 00:17:29;;;;;;;17.20;10.32;;;;;;;-3.66;47.04;100433.53;4472473;32;35063;-75
2022/03/13 00:20:00;;;;;;;22.83;10.10;;;;;;;-4.13;47.11;100428.84;4476729;32;33450;-75
2022/03/13 00:22:30;;;;;;;13.73;7.53;;;;;;;-3.89;47.25;100428.66;4456844;32;34057;-75
2022/03/13 00:25:04;;;;;;;21.23;10.50;;;;;;;-3.98;48.60;100430.63;4469598;32;35029;-75
2022/03/13 00:27:34;;;;;;;13.35;9.15;;;;;;;-4.71;50.39;100430.03;4456628;32;34582;-75
2022/03/13 00:30:06;;;;;;;18.55;9.45;;;;;;;-4.71;50.10;100428.41;4456061;32;33046;-75
2022/03/13 00:32:34;;;;;;;22.27;10.57;;;;;;;-5.03;51.83;100426.19;4456654;32;33935;-75
2022/03/13 00:35:03;;;;;;;16.67;10.60;;;;;;;-5.19;52.31;100425.16;4453062;32;35923;-75
2022/03/13 00:37:31;;;;;;;17.15;10.38;;;;;;;-4.44;50.16;100419.19;4454907;32;34556;-75
2022/03/13 00:40:00;;;;;;;28.90;9.75;;;;;;;-4.41;50.75;100418.53;4454076;32;33598;-75
2022/03/13 00:42:28;;;;;;;19.65;10.15;;;;;;;-4.83;51.38;100420.81;4454320;32;34099;-75
2022/03/13 00:44:56;;;;;;;23.73;10.10;;;;;;;-4.58;51.36;100423.34;4454623;32;35270;-75
2022/03/13 00:47:24;;;;;;;21.15;10.55;;;;;;;-4.62;50.66;100425.59;4454922;32;34289;-75
2022/03/13 00:49:52;;;;;;;22.25;10.70;;;;;;;-4.39;50.83;100422.91;4453261;32;33406;-75
2022/03/13 00:52:19;;;;;;;21.75;9.40;;;;;;;-4.23;50.20;100416.31;4453721;32;33617;-75
2022/03/13 00:54:48;;;;;;;22.05;12.25;;;;;;;-4.15;49.74;100415.12;4454462;32;35035;-75
2022/03/13 00:57:17;;;;;;;19.80;10.20;;;;;;;-4.35;49.16;100420.59;4454715;32;34532;-75
2022/03/13 00:59:45;;;;;;;20.60;10.60;;;;;;;-4.13;50.08;100418.69;4456115;32;33680;-76
2022/03/13 01:02:14;;;;;;;32.08;14.05;;;;;;;-4.31;50.29;100422.53;4463958;32;33950;-76
2022/03/13 01:04:45;;;;;;;20.48;10.75;;;;;;;-5.02;51.62;100425.41;4454315;32;35187;-75
2022/03/13 01:07:14;;;;;;;17.55;10.52;;;;;;;-4.16;50.77;100412.47;4454762;32;34719;-75
2022/03/13 01:09:41;;;;;;;22.15;9.50;;;;;;;-4.02;49.60;100412.59;4455701;32;33535;-75
2022/03/13 01:12:10;;;;;;;19.60;10.02;;;;;;;-4.11;49.80;100404.38;4470361;32;33845;-75
2022/03/13 01:14:38;;;;;;;23.30;11.07;;;;;;;-4.07;49.68;100406.34;4465755;32;36032;-75
2022/03/13 01:17:07;;;;;;;21.55;11.12;;;;;;;-4.02;49.18;100402.44;4454633;32;34772;-75
2022/03/13 01:19:37;;;;;;;25.62;11.75;;;;;;;-4.10;50.12;100410.34;4454647;32;33736;-75
2022/03/13 01:22:06;;;;;;;19.15;10.48;;;;;;;-4.03;50.10;100405.75;4470273;32;33910;-75
2022/03/13 01:24:42;;;;;;;18.80;11.12;;;;;;;-4.60;51.28;100407.13;4467693;32;35157;-75
2022/03/13 01:27:11;;;;;;;22.35;10.60;;;;;;;-4.04;50.13;100396.37;4469094;32;34464;-75
2022/03/13 01:29:40;;;;;;;22.73;9.25;;;;;;;-3.72;47.99;100392.44;4468414;32;33286;-75
2022/03/13 01:32:10;;;;;;;21.00;10.55;;;;;;;-3.93;47.98;100407.22;4454642;32;33812;-75
2022/03/13 01:34:45;;;;;;;26.85;10.80;;;;;;;-4.14;49.30;100401.62;4452895;32;35110;-75
2022/03/13 01:37:23;;;;;;;21.83;11.18;;;;;;;-4.57;50.37;100403.88;4452176;32;35236;-75
2022/03/13 01:39:55;;;;;;;26.02;11.75;;;;;;;-4.36;50.16;100408.62;4452264;32;34256;-75
2022/03/13 01:42:23;;;;;;;17.95;10.40;;;;;;;-4.50;51.00;100401.00;4453363;32;33956;-75
2022/03/13 01:44:51;;;;;;;22.20;11.02;;;;;;;-4.34;50.37;100402.00;4455504;32;36010;-76
2022/03/13 01:47:19;;;;;;;23.05;9.88;;;;;;;-5.21;53.18;100402.94;4468791;32;34396;-75
2022/03/13 01:49:47;;;;;;;21.20;11.48;;;;;;;-4.70;51.71;100406.41;4467949;32;33436;-75
2022/03/13 01:52:16;;;;;;;21.73;11.10;;;;;;;-4.48;50.26;100401.97;4468760;32;33834;-75
2022/03/13 01:54:45;;;;;;;19.00;11.18;;;;;;;-4.99;50.78;100395.16;4468060;32;35446;-75
2022/03/13 01:57:17;;;;;;;20.40;9.88;;;;;;;-4.50;50.33;100385.75;4452650;32;34456;-75
2022/03/13 01:59:51;;;;;;;22.50;10.70;;;;;;;-4.18;47.84;100384.44;4454390;32;33759;-75
2022/03/13 02:02:23;;;;;;;;;;;;;;;-4.73;48.68;100386.72;4469267;32;33925;-75
2022/03/13 02:04:52;;;;;;;25.35;11.68;;;;;;;-4.44;47.35;100380.19;4456712;32;36168;-76
2022/03/13 02:07:21;;;;;;;29.50;14.52;;;;;;;-4.51;48.78;100389.06;4453320;32;34131;-75
2022/03/13 02:09:50;;;;;;;31.83;14.35;;;;;;;-5.32;49.79;100392.06;4453235;32;33757;-75
2022/03/13 02:12:20;;;;;;;18.10;10.32;;;;;;;-5.40;49.63;100383.91;4468474;32;34725;-75
2022/03/13 02:14:49;;;;;;;20.35;11.38;;;;;;;-6.04;52.75;100367.59;4467731;32;35856;-75
2022/03/13 02:17:33;;;;;;;19.17;10.75;;;;;;;-4.86;52.99;100374.88;4465841;32;35198;-75
2022/03/13 02:20:02;;;;;;;23.35;11.27;;;;;;;-4.52;49.28;100369.50;4466685;32;33519;-75
2022/03/13 02:22:31;;;;;;;16.27;10.48;;;;;;;-4.46;49.08;100367.38;4453890;32;34773;-75
2022/03/13 02:24:59;;;;;;;13.95;8.13;;;;;;;-4.58;50.00;100371.66;4452184;32;35131;-75
2022/03/13 02:27:29;;;;;;;16.80;9.82;;;;;;;-4.59;48.76;100375.84;4452726;32;34334;-75
2022/03/13 02:29:57;;;;;;;22.67;10.40;;;;;;;-4.88;50.34;100376.44;4453479;32;34338;-75
2022/03/13 02:32:25;;;;;;;20.05;9.95;;;;;;;-4.94;49.44;100376.03;4452542;32;33901;-75
2022/03/13 02:34:54;;;;;;;23.38;11.00;;;;;;;-4.54;50.17;100373.59;4457734;32;34878;-75
2022/03/13 02:37:37;;;;;;;30.02;9.88;;;;;;;-4.22;50.19;100368.09;4455287;32;34403;-75
2022/03/13 02:40:13;;;;;;;22.20;9.57;;;;;;;-4.52;51.15;100372.03;4469998;32;33706;-75
2022/03/13 02:42:41;;;;;;;18.92;8.02;;;;;;;-4.65;51.90;100374.56;4464658;32;33714;-75
2022/03/13 02:45:09;;;;;;;17.98;8.38;;;;;;;-4.62;50.65;100375.66;4454831;32;35589;-75
2022/03/13 02:47:37;;;;;;;18.70;10.10;;;;;;;-4.72;51.37;100365.63;4469513;32;34408;-75
2022/03/13 02:50:06;;;;;;;21.65;10.02;;;;;;;-4.96;51.78;100364.88;4471688;32;33619;-75
2022/03/13 02:52:34;;;;;;;19.33;9.50;;;;;;;-5.10;51.64;100371.56;4486256;32;33705;-75
2022/03/13 02:55:02;;;;;;;19.00;9.68;;;;;;;-5.10;52.02;100358.87;4470500;32;35895;-74
2022/03/13 02:57:31;;;;;;;16.58;9.20;;;;;;;-5.05;52.16;100364.25;4471270;32;34437;-75
2022/03/13 02:59:59;;;;;;;18.85;10.85;;;;;;;-5.17;52.74;100367.72;4470596;32;33775;-74
2022/03/13 03:02:26;;;;;;;17.45;9.57;;;;;;;-5.20;52.55;100370.06;4470481;32;33931;-75
2022/03/13 03:04:55;;;;;;;22.05;9.05;;;;;;;-6.42;55.79;100365.72;4470832;32;35938;-75
2022/03/13 03:07:23;;;;;;;15.02;7.62;;;;;;;-5.43;54.34;100372.69;4471059;32;34467;-75
2022/03/13 03:09:51;;;;;;;16.33;8.38;;;;;;;-5.16;51.01;100358.44;4470748;32;33579;-74
2022/03/13 03:12:19;;;;;;;15.35;7.78;;;;;;;-5.27;51.91;100360.25;4473564;32;33988;-75
2022/03/13 03:14:46;;;;;;;16.00;7.53;;;;;;;-5.31;52.87;100358.28;4471125;32;35036;-75
2022/03/13 03:17:14;;;;;;;18.02;9.02;;;;;;;-5.31;52.05;100363.38;4470607;32;34497;-75
2022/03/13 03:19:43;;;;;;;19.60;8.95;;;;;;;-6.31;54.81;100359.75;4472701;32;34214;-75
2022/03/13 03:22:13;;;;;;;11.35;6.65;;;;;;;-5.40;54.11;100353.47;4471750;32;33863;-75
2022/03/13 03:24:41;;;;;;;10.40;6.35;;;;;;;-5.12;52.62;100364.62;4472717;32;35052;-75
2022/03/13 03:27:09;;;;;;;12.18;7.15;;;;;;;-5.22;51.20;100358.03;4471745;32;34344;-75
2022/03/13 03:29:37;;;;;;;19.23;8.95;;;;;;;-5.34;52.90;100355.53;4471049;32;34268;-75
2022/03/13 03:32:05;;;;;;;14.80;9.52;;;;;;;-5.28;53.34;100350.88;4470613;32;34768;-75
2022/03/13 03:34:33;;;;;;;8.98;6.40;;;;;;;-5.22;52.49;100352.97;4470621;32;35038;-75
2022/03/13 03:37:02;;;;;;;11.73;7.68;;;;;;;-5.37;52.69;100347.69;4468445;32;34600;-75
2022/03/13 03:39:31;;;;;;;14.20;6.55;;;;;;;-5.74;52.33;100343.47;4486560;32;33214;-75
2022/03/13 03:42:02;;;;;;;12.37;7.57;;;;;;;-6.20;53.37;100347.00;4471154;32;33593;-75
2022/03/13 03:44:30;;;;;;;10.15;6.97;;;;;;;-6.27;55.53;100347.31;4472892;32;34310;-75
2022/03/13 03:46:59;;;;;;;12.77;6.37;;;;;;;-5.44;52.91;100340.44;4473802;32;34534;-75
2022/03/13 03:49:27;;;;;;;10.45;5.72;;;;;;;-5.29;53.06;100338.06;4470850;32;33816;-75
2022/03/13 03:51:55;;;;;;;11.90;6.18;;;;;;;-5.27;52.43;100334.88;4452421;32;34193;-75
2022/03/13 03:54:23;;;;;;;12.32;6.45;;;;;;;-5.24;52.83;100331.66;4471129;32;35817;-75
2022/03/13 03:56:51;;;;;;;16.73;7.72;;;;;;;-5.19;52.79;100326.13;4470350;32;34495;-75
2022/03/13 03:59:20;;;;;;;12.88;5.18;;;;;;;-5.27;52.64;100329.78;4456350;32;33563;-75
2022/03/13 04:01:48;;;;;;;11.77;6.40;;;;;;;-5.22;51.86;100323.38;4480525;32;33904;-75
2022/03/13 04:04:18;;;;;;;8.82;5.75;;;;;;;-6.05;53.76;100331.97;4486449;32;35096;-75
2022/03/13 04:06:46;;;;;;;10.73;5.18;;;;;;;-6.22;54.54;100333.31;4469019;32;35178;-74
2022/03/13 04:09:14;;;;;;;18.33;6.57;;;;;;;-5.50;51.97;100345.97;4471478;32;34160;-75
2022/03/13 04:11:43;;;;;;;11.70;7.15;;;;;;;-5.89;50.53;100334.81;4486430;32;33857;-75
2022/03/13 04:14:11;;;;;;;12.75;7.93;;;;;;;-6.32;55.38;100340.28;4458316;32;34919;-75
2022/03/13 04:16:39;;;;;;;9.70;6.35;;;;;;;-5.34;54.00;100340.31;4470556;32;35276;-75
2022/03/13 04:19:09;;;;;;;21.55;5.95;;;;;;;-5.05;53.35;100341.41;4470245;32;33502;-75
2022/03/13 04:21:41;;;;;;;9.90;4.93;;;;;;;-5.31;53.29;100332.00;4456949;32;33126;-74
2022/03/13 04:24:11;;;;;;;13.73;5.70;;;;;;;-5.25;52.47;100328.22;4457691;32;35080;-75
2022/03/13 04:26:39;;;;;;;7.85;5.00;;;;;;;-5.00;50.80;100319.72;4460841;31;34303;-74
2022/03/13 04:29:09;;;;;;;10.55;6.45;;;;;;;-5.18;48.92;100320.25;4473829;31;33457;-74
2022/03/13 04:31:40;;;;;;;8.75;5.78;;;;;;;-5.13;48.44;100318.03;4470560;32;34647;-75
2022/03/13 04:34:15;;;;;;;11.50;5.28;;;;;;;-5.24;47.58;100319.84;4469943;32;35888;-74
2022/03/13 04:36:44;;;;;;;5.22;3.80;;;;;;;-5.39;49.20;100322.22;4453416;32;34269;-75
2022/03/13 04:39:11;;;;;;;7.50;4.37;;;;;;;-4.80;48.42;100324.50;4454274;32;33535;-75
2022/03/13 04:41:40;;;;;;;8.70;4.97;;;;;;;-4.98;48.20;100323.25;4454733;32;34797;-75
2022/03/13 04:44:14;;;;;;;9.70;4.62;;;;;;;-5.53;51.46;100320.38;4453397;32;35031;-76
2022/03/13 04:46:42;;;;;;;10.10;5.75;;;;;;;-4.97;51.49;100313.19;4454264;32;34513;-74
2022/03/13 04:49:11;;;;;;;7.20;4.43;;;;;;;-6.27;54.83;100315.25;4466518;32;33435;-74
2022/03/13 04:51:40;;;;;;;6.10;3.97;;;;;;;-5.13;52.72;100307.87;4486226;32;34895;-74
2022/03/13 04:54:08;;;;;;;6.12;3.92;;;;;;;-4.97;51.57;100319.94;4472220;32;34747;-74
2022/03/13 04:56:40;;;;;;;13.30;4.28;;;;;;;-5.28;49.98;100317.88;4470286;32;35323;-74
2022/03/13 04:59:08;;;;;;;11.95;6.82;;;;;;;-5.44;51.34;100312.53;4467648;32;33311;-74
2022/03/13 05:01:36;;;;;;;7.60;4.22;;;;;;;-5.48;52.09;100303.81;4470213;32;33965;-74
2022/03/13 05:04:08;;;;;;;8.30;5.47;;;;;;;-5.56;52.62;100308.37;4457754;32;35146;-75
2022/03/13 05:06:37;;;;;;;7.25;4.07;;;;;;;-5.60;51.60;100308.06;4454710;32;34517;-75
2022/03/13 05:09:06;;;;;;;14.07;5.22;;;;;;;-5.68;52.07;100315.16;4454139;32;33100;-75
2022/03/13 05:11:34;;;;;;;7.87;5.22;;;;;;;-5.66;52.88;100316.13;4453279;32;33904;-75
2022/03/13 05:14:02;;;;;;;10.48;5.12;;;;;;;-5.36;52.40;100321.56;4452940;32;35349;-75
2022/03/13 05:16:30;;;;;;;10.55;5.22;;;;;;;-5.30;51.94;100316.88;4453365;32;35034;-75
2022/03/13 05:18:58;;;;;;;15.25;6.07;;;;;;;-6.53;54.45;100326.94;4456626;32;34177;-77
2022/03/13 05:21:25;;;;;;;7.65;4.55;;;;;;;-5.97;54.29;100329.22;4454065;32;33896;-76
2022/03/13 05:23:53;;;;;;;6.97;4.93;;;;;;;-5.15;53.45;100330.62;4455055;32;34951;-75
2022/03/13 05:26:21;;;;;;;8.45;4.60;;;;;;;-4.99;52.45;100331.66;4485554;32;34552;-76
2022/03/13 05:28:49;;;;;;;9.23;5.55;;;;;;;-4.77;51.47;100328.87;4467449;32;33622;-77
2022/03/13 05:31:17;;;;;;;5.93;3.80;;;;;;;-4.71;50.67;100328.41;4453226;32;33166;-75
2022/03/13 05:33:45;;;;;;;7.18;3.17;;;;;;;-4.53;51.90;100329.63;4453833;32;35176;-75
2022/03/13 05:36:13;;;;;;;12.25;5.10;;;;;;;-4.22;49.87;100327.41;4466274;32;35185;-74
2022/03/13 05:38:41;;;;;;;9.60;5.90;;;;;;;-3.98;51.37;100321.22;4462426;32;33581;-74
2022/03/13 05:41:10;;;;;;;9.25;4.50;;;;;;;-3.78;52.64;100325.88;4476359;32;33839;-75
2022/03/13 05:43:40;;;;;;;9.95;4.47;;;;;;;-1.87;49.13;100326.84;4461754;32;35110;-75
2022/03/13 05:46:08;;;;;;;9.10;5.40;;;;;;;0.64;41.22;100321.38;4485436;32;34659;-75
2022/03/13 05:48:36;;;;;;;9.77;5.07;;;;;;;2.19;37.21;100323.53;4464027;32;33321;-74
2022/03/13 05:51:04;;;;;;;7.57;4.50;;;;;;;3.01;35.38;100315.44;4469759;32;33895;-75
2022/03/13 05:53:32;;;;;;;7.07;4.35;;;;;;;3.52;36.61;100314.59;4442785;32;34634;-75
2022/03/13 05:55:59;;;;;;;9.30;4.90;;;;;;;4.76;32.84;100314.09;4469692;32;35188;-75
2022/03/13 05:58:28;;;;;;;9.25;5.50;;;;;;;5.68;32.75;100307.94;4469491;32;34419;-76
2022/03/13 06:01:05;;;;;;;13.85;6.78;;;;;;;5.68;33.26;100307.94;4469305;32;34823;-76
2022/03/13 06:03:34;;;;;;;16.73;7.45;;;;;;;4.59;34.34;100308.47;4469533;32;35042;-76
2022/03/13 06:06:03;;;;;;;15.32;7.55;;;;;;;4.05;35.61;100309.44;4469692;32;34551;-75
2022/03/13 06:08:31;;;;;;;10.70;5.22;;;;;;;3.73;37.71;100308.44;4469602;32;33519;-75
2022/03/13 06:10:59;;;;;;;12.95;6.18;;;;;;;3.99;35.37;100309.25;4469559;32;34736;-75
2022/03/13 06:13:27;;;;;;;17.50;9.32;;;;;;;3.42;37.65;100309.97;4469046;32;36040;-75
2022/03/13 06:15:57;;;;;;;15.13;7.15;;;;;;;3.21;34.70;100298.13;4469671;32;34555;-75
2022/03/13 06:18:30;;;;;;;16.12;7.12;;;;;;;1.90;41.68;100319.00;4458999;32;34429;-74
2022/03/13 06:20:58;;;;;;;20.00;7.50;;;;;;;2.09;41.71;100320.59;4468791;32;33846;-75
2022/03/13 06:23:29;;;;;;;14.27;6.50;;;;;;;3.07;38.85;100324.19;4466337;32;35874;-75
2022/03/13 06:26:00;;;;;;;15.82;7.55;;;;;;;4.02;34.96;100318.78;4473173;32;33648;-75
2022/03/13 06:28:28;;;;;;;10.88;5.57;;;;;;;4.12;34.29;100328.56;4481600;32;33750;-75
2022/03/13 06:30:56;;;;;;;9.75;5.12;;;;;;;4.72;33.79;100327.75;4457464;32;33608;-75
2022/03/13 06:33:26;;;;;;;14.52;8.98;;;;;;;6.85;30.30;100328.69;4457086;32;35029;-76
2022/03/13 06:35:54;;;;;;;9.18;5.85;;;;;;;6.64;28.97;100329.97;4441847;32;34457;-76
2022/03/13 06:38:22;;;;;;;18.62;11.38;;;;;;;7.22;25.58;100329.41;4458847;32;34163;-76
2022/03/13 06:40:51;;;;;;;9.73;4.62;;;;;;;7.01;26.29;100324.69;4459571;32;33729;-76
2022/03/13 06:43:19;;;;;;;10.68;5.53;;;;;;;5.01;28.47;100331.19;4455267;32;35154;-75
2022/03/13 06:45:47;;;;;;;9.65;5.37;;;;;;;4.45;30.60;100338.16;4455739;32;34861;-76
2022/03/13 06:48:15;;;;;;;11.00;5.25;;;;;;;4.67;30.34;100342.22;4455514;32;33177;-76
2022/03/13 06:50:44;;;;;;;9.00;5.18;;;;;;;4.38;29.93;100339.66;4455645;32;34880;-76
2022/03/13 06:53:12;;;;;;;10.77;5.20;;;;;;;4.68;28.84;100339.69;4455298;32;35095;-76
2022/03/13 06:55:40;;;;;;;10.05;4.93;;;;;;;4.44;29.43;100339.84;4454455;32;34527;-76
2022/03/13 06:58:08;;;;;;;9.40;4.78;;;;;;;5.58;28.59;100343.00;4455192;32;33497;-76
2022/03/13 07:00:36;;;;;;;10.35;6.03;;;;;;;5.49;29.97;100347.94;4454580;32;33904;-75
2022/03/13 07:03:05;;;;;;;11.07;5.00;;;;;;;5.48;30.22;100346.19;4455185;32;35825;-75
2022/03/13 07:05:33;;;;;;;9.05;5.07;;;;;;;5.19;30.55;100341.13;4455580;32;34459;-76
2022/03/13 07:08:01;;;;;;;12.13;6.20;;;;;;;5.98;29.16;100348.31;4455060;32;33774;-75
2022/03/13 07:10:28;;;;;;;9.40;5.68;;;;;;;5.78;31.63;100343.50;4455939;32;34750;-75
2022/03/13 07:12:57;;;;;;;9.73;5.68;;;;;;;6.47;31.41;100346.88;4455153;32;35694;-73
2022/03/13 07:15:27;;;;;;;11.20;5.53;;;;;;;5.70;31.82;100352.78;4455525;32;35201;-75
2022/03/13 07:17:55;;;;;;;23.87;15.98;;;;;;;5.95;30.23;100355.94;4454006;32;35343;-74
2022/03/13 07:20:23;;;;;;;19.65;9.55;;;;;;;7.28;28.28;100349.37;4457014;32;32484;-75
2022/03/13 07:22:51;;;;;;;11.82;6.37;;;;;;;5.82;28.85;100344.44;4454321;32;35989;-77
2022/03/13 07:25:20;;;;;;;13.48;6.03;;;;;;;6.69;28.18;100336.97;4455527;32;34541;-77
2022/03/13 07:27:48;;;;;;;13.13;6.00;;;;;;;7.20;27.27;100334.56;4455756;32;33577;-76
2022/03/13 07:30:15;;;;;;;12.98;5.62;;;;;;;6.33;27.30;100343.97;4454804;32;34676;-76
2022/03/13 07:32:44;;;;;;;12.15;6.95;;;;;;;5.59;27.93;100343.88;4455405;32;36186;-77
2022/03/13 07:35:13;;;;;;;10.60;5.60;;;;;;;7.68;26.58;100348.38;4468972;32;35198;-79
2022/03/13 07:37:43;;;;;;;13.45;6.57;;;;;;;7.64;26.35;100343.09;4472885;32;33374;-78
2022/03/13 07:40:12;;;;;;;13.80;6.10;;;;;;;7.09;27.24;100349.00;4485312;32;34713;-77
2022/03/13 07:42:39;;;;;;;13.65;6.75;;;;;;;7.67;26.89;100350.94;4472334;32;35168;-76
2022/03/13 07:45:09;;;;;;;14.95;7.85;;;;;;;9.07;24.32;100342.59;4459155;32;35426;-75
2022/03/13 07:47:37;;;;;;;15.13;6.18;;;;;;;9.67;23.53;100340.59;4486499;32;33207;-77
2022/03/13 07:50:06;;;;;;;20.62;11.40;;;;;;;10.28;23.00;100341.97;4458800;32;33933;-78
2022/03/13 07:52:34;;;;;;;15.23;7.45;;;;;;;10.27;23.49;100346.31;4470826;32;34898;-79
2022/03/13 07:55:03;;;;;;;14.38;8.07;;;;;;;10.20;22.84;100352.28;4470415;32;34533;-77
2022/03/13 07:57:30;;;;;;;13.95;7.50;;;;;;;9.09;23.07;100351.28;4470566;32;33568;-78
2022/03/13 07:59:58;;;;;;;16.15;9.25;;;;;;;9.53;22.12;100352.59;4456429;32;33826;-78
2022/03/13 08:02:26;;;;;;;13.48;7.57;;;;;;;10.20;21.57;100357.50;4456694;32;34872;-81
2022/03/13 08:04:54;;;;;;;15.63;8.48;;;;;;;10.34;20.80;100361.12;4480500;32;35196;-77
2022/03/13 08:07:22;;;;;;;13.45;7.97;;;;;;;9.62;21.69;100353.56;4484869;32;33394;-82
2022/03/13 08:09:50;;;;;;;16.40;9.50;;;;;;;9.89;20.85;100349.47;4484893;32;33910;-79
2022/03/13 08:12:18;;;;;;;13.15;8.43;;;;;;;9.23;21.32;100357.50;4486342;32;35075;-78
2022/03/13 08:14:46;;;;;;;15.43;8.35;;;;;;;10.32;20.42;100357.62;4475474;32;35097;-80
2022/03/13 08:17:15;;;;;;;21.00;8.88;;;;;;;10.07;21.56;100357.41;4459525;32;33145;-77
2022/03/13 08:19:43;;;;;;;16.85;8.00;;;;;;;9.43;21.90;100355.13;4470301;32;33826;-79
2022/03/13 08:22:12;;;;;;;16.92;8.73;;;;;;;9.38;22.87;100354.19;4470790;32;34904;-79
2022/03/13 08:24:40;;;;;;;17.75;8.52;;;;;;;8.87;21.28;100348.41;4479020;32;35001;-80
2022/03/13 08:27:08;;;;;;;15.43;8.45;;;;;;;9.15;22.01;100350.47;4486395;32;33504;-76
2022/03/13 08:29:36;;;;;;;14.10;8.40;;;;;;;9.75;21.94;100351.09;4476670;32;34579;-75
2022/03/13 08:32:05;;;;;;;13.73;8.07;;;;;;;11.26;19.47;100351.97;4456726;32;35024;-76
2022/03/13 08:34:34;;;;;;;16.08;6.87;;;;;;;10.56;19.56;100346.50;4456304;32;34354;-77
2022/03/13 08:37:03;;;;;;;14.48;6.65;;;;;;;9.89;18.67;100346.88;4469286;32;33199;-76
2022/03/13 08:39:32;;;;;;;18.17;7.70;;;;;;;11.21;17.77;100344.16;4456063;32;33320;-77
2022/03/13 08:42:00;;;;;;;12.02;7.40;;;;;;;11.57;16.99;100345.09;4456092;32;35961;-75
2022/03/13 08:44:27;;;;;;;13.40;7.25;;;;;;;10.82;18.87;100344.03;4477209;32;34320;-77
2022/03/13 08:46:55;;;;;;;10.05;5.25;;;;;;;11.53;17.21;100339.00;4485808;32;33666;-75
2022/03/13 08:49:23;;;;;;;12.48;6.35;;;;;;;11.15;17.37;100346.72;4478491;32;34073;-78
2022/03/13 08:51:51;;;;;;;13.13;6.53;;;;;;;11.93;16.80;100344.28;4470564;32;35779;-76
2022/03/13 08:54:20;;;;;;;12.77;6.40;;;;;;;11.98;16.62;100340.78;4469878;32;35250;-77
2022/03/13 08:56:48;;;;;;;12.02;5.60;;;;;;;11.84;16.80;100356.41;4464939;32;33429;-76
2022/03/13 08:59:20;;;;;;;10.80;6.28;;;;;;;11.33;17.09;100345.91;4484908;32;33825;-80
2022/03/13 09:01:52;;;;;;;13.98;5.82;;;;;;;12.47;16.35;100341.59;4472898;32;34915;-81
2022/03/13 09:04:21;;;;;;;10.82;6.05;;;;;;;11.93;16.60;100338.22;4487379;31;34556;-78
2022/03/13 09:06:49;;;;;;;10.45;5.62;;;;;;;11.75;18.12;100341.63;4501521;31;34154;-78
2022/03/13 09:09:19;;;;;;;12.00;6.37;;;;;;;12.23;16.09;100336.41;4494201;31;34563;-80
2022/03/13 09:11:47;;;;;;;10.63;5.65;;;;;;;12.11;16.71;100338.19;4485934;32;35900;-80
2022/03/13 09:14:15;;;;;;;9.65;5.43;;;;;;;11.84;17.10;100338.16;4482610;32;34000;-80
2022/03/13 09:16:43;;;;;;;10.40;6.22;;;;;;;12.42;15.87;100332.03;4470085;32;33066;-80
2022/03/13 09:19:12;;;;;;;10.60;6.25;;;;;;;11.88;16.70;100332.94;4469593;32;33937;-79
2022/03/13 09:21:40;;;;;;;14.57;6.25;;;;;;;11.51;16.57;100337.28;4455972;32;35967;-79
2022/03/13 09:24:09;;;;;;;10.57;5.45;;;;;;;12.54;15.98;100321.56;4476146;32;34323;-80
2022/03/13 09:26:43;;;;;;;9.45;4.85;;;;;;;13.15;15.58;100330.03;4457037;32;33540;-77
2022/03/13 09:29:11;;;;;;;14.77;6.62;;;;;;;12.46;15.55;100318.97;4464376;32;172513;-79
2022/03/13 09:31:39;;;;;;;21.98;12.18;;;;;;;13.44;15.17;100330.72;4469935;32;35156;-77
2022/03/13 09:34:07;;;;;;;16.10;6.75;;;;;;;11.60;18.07;100323.38;4469753;32;35105;-79
2022/03/13 09:36:37;;;;;;;13.32;6.07;;;;;;;13.48;15.38;100322.88;4469814;32;33812;-78
2022/03/13 09:39:07;;;;;;;11.57;5.87;;;;;;;14.07;15.87;100324.16;4458548;32;35447;-79
2022/03/13 09:41:38;;;;;;;11.38;6.15;;;;;;;14.54;14.15;100328.03;4486946;31;34932;-84
2022/03/13 09:44:07;;;;;;;11.85;6.15;;;;;;;14.13;14.38;100329.31;4481981;32;32940;-80
2022/03/13 09:46:36;;;;;;;10.63;6.22;;;;;;;14.12;14.86;100324.13;4471704;32;33458;-80
2022/03/13 09:49:06;;;;;;;11.43;5.60;;;;;;;14.85;14.96;100311.97;4484358;32;34831;-75
2022/03/13 09:51:34;;;;;;;14.65;7.05;;;;;;;13.47;14.29;100327.25;4478045;32;35007;-75
2022/03/13 09:54:03;;;;;;;12.70;6.95;;;;;;;14.34;14.88;100317.75;4469477;32;34598;-75
2022/03/13 09:56:33;;;;;;;15.30;6.30;;;;;;;12.66;16.38;100316.28;4469557;32;34278;-76
2022/03/13 09:59:01;;;;;;;16.95;7.90;;;;;;;14.52;14.47;100306.19;4468638;32;34037;-76
2022/03/13 10:01:29;;;;;;;10.75;6.25;;;;;;;14.40;14.23;100306.38;4455470;32;34405;-75
2022/03/13 10:03:58;;;;;;;10.48;6.37;;;;;;;14.77;14.70;100304.22;4455387;32;34440;-76
2022/03/13 10:06:26;;;;;;;11.07;7.37;;;;;;;13.92;14.19;100298.94;4469765;32;34308;-77
2022/03/13 10:08:54;;;;;;;11.43;6.20;;;;;;;14.63;14.11;100297.38;4466995;32;34708;-76
2022/03/13 10:11:32;;;;;;;14.20;6.35;;;;;;;15.13;14.17;100295.88;4470226;32;34345;-76
2022/03/13 10:14:07;;;;;;;12.98;7.15;;;;;;;14.41;15.32;100298.47;4459727;32;34483;-77
2022/03/13 10:16:39;;;;;;;13.00;6.50;;;;;;;14.91;13.93;100301.41;4469654;32;33460;-76
2022/03/13 10:19:15;;;;;;;13.70;6.15;;;;;;;13.39;14.50;100298.50;4455447;32;34026;-76
2022/03/13 10:22:07;;;;;;;12.70;7.15;;;;;;;15.03;13.25;100291.63;4455179;32;35023;-77
2022/03/13 10:24:41;;;;;;;12.27;6.57;;;;;;;14.62;14.14;100293.03;4468398;32;34289;-77
2022/03/13 10:27:10;;;;;;;15.48;8.55;;;;;;;14.96;14.12;100289.09;4457682;32;32738;-75
2022/03/13 10:29:38;;;;;;;13.32;7.32;;;;;;;14.80;13.94;100290.19;4484562;32;33392;-77
2022/03/13 10:32:06;;;;;;;18.60;9.00;;;;;;;15.52;13.32;100283.03;4484722;32;34996;-77
2022/03/13 10:34:36;;;;;;;13.38;8.10;;;;;;;14.50;14.61;100284.37;4469244;32;34916;-77
2022/03/13 10:37:05;;;;;;;15.63;9.95;;;;;;;15.64;15.00;100285.47;4441754;32;34472;-76
2022/03/13 10:39:36;;;;;;;15.38;8.10;;;;;;;15.83;14.30;100279.91;4468698;32;35209;-80
2022/03/13 10:42:04;;;;;;;13.93;8.23;;;;;;;16.85;13.54;100279.75;4455312;32;35122;-79
2022/03/13 10:44:43;;;;;;;15.43;7.97;;;;;;;15.62;13.83;100278.50;4476302;32;34461;-80
2022/03/13 10:47:13;;;;;;;11.10;5.68;;;;;;;16.45;13.29;100280.53;4468458;32;33565;-77
2022/03/13 10:49:43;;;;;;;12.15;5.32;;;;;;;15.63;12.59;100278.47;4484201;32;33856;-78
2022/03/13 10:52:34;;;;;;;10.48;5.62;;;;;;;16.22;12.05;100280.97;4483794;32;35158;-79
2022/03/13 10:55:18;;;;;;;13.00;5.28;;;;;;;16.51;12.31;100278.69;4455085;32;34720;-77
2022/03/13 10:57:53;;;;;;;11.23;6.20;;;;;;;15.98;12.53;100274.41;4454500;32;33698;-75
2022/03/13 11:00:23;;;;;;;10.40;5.30;;;;;;;15.64;13.29;100280.22;4442147;32;32353;-74
2022/03/13 11:02:52;;;;;;;13.35;6.22;;;;;;;16.30;12.36;100268.53;4454293;32;35104;-75
2022/03/13 11:05:20;;;;;;;10.45;5.87;;;;;;;16.09;13.00;100256.72;4454866;32;34323;-78
2022/03/13 11:07:53;;;;;;;10.63;6.07;;;;;;;17.02;11.65;100265.34;4468261;32;33676;-75
2022/03/13 11:10:21;;;;;;;12.70;5.90;;;;;;;16.90;11.59;100270.87;4470878;32;33889;-76
2022/03/13 11:12:49;;;;;;;11.48;5.70;;;;;;;14.50;12.54;100263.41;4470684;32;34924;-77
2022/03/13 11:15:17;;;;;;;9.75;5.55;;;;;;;14.65;12.44;100262.41;4457437;32;35281;-75
2022/03/13 11:17:46;;;;;;;13.05;6.25;;;;;;;15.29;12.51;100263.25;4459272;32;31940;-75
2022/03/13 11:20:15;;;;;;;12.43;5.90;;;;;;;15.39;12.26;100264.00;4472635;32;34057;-76
2022/03/13 11:22:43;;;;;;;9.18;5.35;;;;;;;14.83;12.63;100257.81;4484355;32;35110;-74
2022/03/13 11:25:12;;;;;;;12.30;7.07;;;;;;;16.78;11.87;100257.09;4470949;32;35198;-75
2022/03/13 11:27:40;;;;;;;13.30;6.50;;;;;;;16.11;11.92;100257.53;4456187;32;34272;-74
2022/03/13 11:30:13;;;;;;;11.73;6.32;;;;;;;15.70;13.01;100264.34;4467556;32;33664;-76